createdAt,value
2018-03-31T00:02:32.557Z,-65
2018-03-31T00:04:58.379Z,-65
2018-03-31T00:07:24.242Z,-65
2018-03-31T00:09:50.181Z,-65
2018-03-31T00:55:56.923Z,-65
2018-03-31T00:58:22.699Z,-65
2018-03-31T01:00:49.251Z,-65
2018-03-31T01:03:15.098Z,-65
2018-03-31T01:05:41.010Z,-65
2018-03-31T01:08:06.936Z,-65
2018-03-31T01:10:32.742Z,-65
2018-03-31T01:12:58.567Z,-65
2018-03-31T01:15:24.377Z,-65
2018-03-31T01:17:50.193Z,-65
2018-03-31T01:20:16.026Z,-65
2018-03-31T01:22:41.838Z,-65
2018-03-31T01:25:07.691Z,-65
2018-03-31T01:27:33.455Z,-65
2018-03-31T01:30:00.001Z,-64
2018-03-31T01:32:25.819Z,-65
2018-03-31T01:34:52.389Z,-65
2018-03-31T01:37:18.228Z,-65
2018-03-31T01:39:44.168Z,-65
2018-03-31T01:42:10.034Z,-65
2018-03-31T01:44:35.854Z,-65
2018-03-31T01:47:01.663Z,-65
2018-03-31T01:49:27.495Z,-65
2018-03-31T01:51:53.322Z,-65
2018-03-31T01:54:19.187Z,-64
2018-03-31T01:56:45.035Z,-65
2018-03-31T01:59:11.625Z,-65
2018-03-31T02:01:37.509Z,-66
2018-03-31T02:04:03.328Z,-65
2018-03-31T02:06:29.163Z,-65
2018-03-31T02:08:54.966Z,-65
2018-03-31T02:11:20.836Z,-65
2018-03-31T02:13:46.747Z,-65
2018-03-31T02:16:12.613Z,-65
2018-03-31T02:18:39.144Z,-64
2018-03-31T02:21:05.722Z,-65
2018-03-31T02:23:31.509Z,-65
2018-03-31T02:25:58.040Z,-64
2018-03-31T02:28:24.600Z,-65
2018-03-31T02:30:50.404Z,-65
2018-03-31T02:33:16.214Z,-65
2018-03-31T02:35:42.752Z,-65
2018-03-31T02:38:09.288Z,-65
2018-03-31T02:40:35.828Z,-65
2018-03-31T02:45:34.375Z,-65
2018-03-31T02:48:05.627Z,-65
2018-03-31T02:50:31.539Z,-65
2018-03-31T02:52:57.360Z,-65
2018-03-31T02:55:23.151Z,-65
2018-03-31T02:57:48.972Z,-66
2018-03-31T03:00:14.789Z,-65
2018-03-31T03:02:40.608Z,-65
2018-03-31T03:05:06.435Z,-66
2018-03-31T03:07:32.251Z,-65
2018-03-31T03:09:58.072Z,-65
2018-03-31T03:12:23.892Z,-65
2018-03-31T03:14:49.703Z,-65
2018-03-31T03:17:15.580Z,-65
2018-03-31T03:19:41.438Z,-65
2018-03-31T03:22:07.283Z,-65
2018-03-31T03:29:36.503Z,-65
2018-03-31T03:32:02.319Z,-65
2018-03-31T03:34:28.147Z,-65
2018-03-31T03:36:53.957Z,-65
2018-03-31T03:39:19.823Z,-66
2018-03-31T03:41:45.739Z,-65
2018-03-31T03:44:11.516Z,-65
2018-03-31T03:46:37.336Z,-65
2018-03-31T03:49:03.154Z,-65
2018-03-31T03:51:29.746Z,-65
2018-03-31T03:53:56.332Z,-64
2018-03-31T03:56:22.161Z,-65
2018-03-31T03:58:48.064Z,-65
2018-03-31T04:01:13.904Z,-65
2018-03-31T04:03:39.728Z,-65
2018-03-31T04:06:05.535Z,-65
2018-03-31T04:08:31.346Z,-65
2018-03-31T04:10:57.171Z,-65
2018-03-31T04:13:22.986Z,-66
2018-03-31T04:15:48.810Z,-65
2018-03-31T04:18:14.627Z,-65
2018-03-31T04:20:40.446Z,-65
2018-03-31T04:23:06.298Z,-66
2018-03-31T04:25:32.071Z,-65
2018-03-31T04:27:58.603Z,-66
2018-03-31T04:30:25.149Z,-66
2018-03-31T04:32:50.964Z,-65
2018-03-31T04:35:16.807Z,-65
2018-03-31T04:37:42.603Z,-65
2018-03-31T04:40:09.138Z,-66
2018-03-31T04:42:35.681Z,-65
2018-03-31T04:45:01.502Z,-65
2018-03-31T04:47:27.342Z,-66
2018-03-31T04:49:53.169Z,-65
2018-03-31T04:52:18.958Z,-66
2018-03-31T04:54:44.802Z,-66
2018-03-31T04:57:10.623Z,-65
2018-03-31T04:59:36.519Z,-65
2018-03-31T05:02:02.378Z,-65
2018-03-31T05:04:28.162Z,-65
2018-03-31T05:06:53.971Z,-66
2018-03-31T05:09:20.543Z,-65
2018-03-31T05:11:46.332Z,-65
2018-03-31T05:14:12.880Z,-66
2018-03-31T05:16:38.680Z,-66
2018-03-31T05:19:05.219Z,-66
2018-03-31T05:21:31.772Z,-65
2018-03-31T05:23:57.654Z,-65
2018-03-31T05:26:23.544Z,-65
2018-03-31T05:28:50.030Z,-65
2018-03-31T05:31:16.607Z,-65
2018-03-31T05:33:42.394Z,-65
2018-03-31T05:36:08.225Z,-65
2018-03-31T05:38:34.046Z,-65
2018-03-31T05:40:59.867Z,-65
2018-03-31T05:43:25.734Z,-65
2018-03-31T05:50:55.723Z,-64
2018-03-31T05:53:22.264Z,-65
2018-03-31T05:55:48.100Z,-67
2018-03-31T05:58:14.067Z,-68
2018-03-31T06:00:39.999Z,-65
2018-03-31T06:03:05.888Z,-66
2018-03-31T06:05:31.801Z,-65
2018-03-31T06:07:57.612Z,-67
2018-03-31T06:10:23.502Z,-67
2018-03-31T06:12:50.069Z,-67
2018-03-31T06:15:15.866Z,-67
2018-03-31T06:17:42.477Z,-67
2018-03-31T06:20:08.409Z,-67
2018-03-31T06:22:34.985Z,-67
2018-03-31T06:25:00.790Z,-67
2018-03-31T06:27:26.609Z,-67
2018-03-31T06:29:52.430Z,-67
2018-03-31T06:32:18.255Z,-67
2018-03-31T06:34:44.077Z,-67
2018-03-31T06:37:09.896Z,-67
2018-03-31T06:39:35.828Z,-67
2018-03-31T06:42:01.635Z,-67
2018-03-31T06:46:59.638Z,-67
2018-03-31T06:49:25.448Z,-67
2018-03-31T06:51:51.272Z,-67
2018-03-31T06:54:17.088Z,-67
2018-03-31T06:56:42.906Z,-67
2018-03-31T06:59:08.725Z,-67
2018-03-31T07:01:34.550Z,-68
2018-03-31T07:04:00.366Z,-67
2018-03-31T07:06:26.174Z,-66
2018-03-31T07:08:51.996Z,-67
2018-03-31T07:11:17.818Z,-67
2018-03-31T07:13:43.650Z,-66
2018-03-31T07:16:09.474Z,-67
2018-03-31T07:18:35.290Z,-67
2018-03-31T07:21:01.107Z,-67
2018-03-31T07:23:26.919Z,-67
2018-03-31T07:25:52.743Z,-67
2018-03-31T07:28:18.564Z,-67
2018-03-31T07:30:44.379Z,-66
2018-03-31T07:33:10.194Z,-67
2018-03-31T07:35:36.015Z,-67
2018-03-31T07:38:01.837Z,-66
2018-03-31T07:40:27.646Z,-67
2018-03-31T07:42:53.476Z,-67
2018-03-31T07:45:19.291Z,-67
2018-03-31T07:47:45.111Z,-66
2018-03-31T07:50:10.922Z,-66
2018-03-31T07:52:36.758Z,-67
2018-03-31T07:55:02.573Z,-67
2018-03-31T07:57:28.392Z,-66
2018-03-31T07:59:54.197Z,-67
2018-03-31T08:02:20.099Z,-67
2018-03-31T08:04:46.666Z,-67
2018-03-31T08:07:12.478Z,-67
2018-03-31T08:09:38.302Z,-67
2018-03-31T08:12:04.111Z,-67
2018-03-31T08:14:29.939Z,-67
2018-03-31T08:16:55.753Z,-67
2018-03-31T08:19:21.584Z,-66
2018-03-31T08:21:47.407Z,-67
2018-03-31T08:24:13.214Z,-67
2018-03-31T08:26:39.044Z,-67
2018-03-31T08:29:04.858Z,-67
2018-03-31T08:31:30.683Z,-67
2018-03-31T08:33:56.623Z,-66
2018-03-31T08:36:22.421Z,-67
2018-03-31T08:38:48.244Z,-67
2018-03-31T08:41:14.069Z,-67
2018-03-31T08:43:39.883Z,-67
2018-03-31T08:46:05.703Z,-66
2018-03-31T08:48:31.528Z,-67
2018-03-31T08:50:57.337Z,-67
2018-03-31T08:53:23.168Z,-67
2018-03-31T08:55:48.992Z,-67
2018-03-31T08:58:14.803Z,-67
2018-03-31T09:00:40.612Z,-67
2018-03-31T09:03:10.014Z,-67
2018-03-31T09:05:35.842Z,-67
2018-03-31T09:08:01.678Z,-67
2018-03-31T09:10:27.479Z,-67
2018-03-31T09:12:53.294Z,-66
2018-03-31T09:15:19.129Z,-66
2018-03-31T09:17:44.933Z,-67
2018-03-31T09:20:10.771Z,-66
2018-03-31T09:22:36.570Z,-67
2018-03-31T09:25:02.372Z,-66
2018-03-31T09:27:29.007Z,-66
2018-03-31T09:29:55.574Z,-66
2018-03-31T09:32:21.378Z,-66
2018-03-31T09:34:52.135Z,-66
2018-03-31T09:37:17.966Z,-67
2018-03-31T09:39:43.861Z,-67
2018-03-31T09:42:09.680Z,-67
2018-03-31T09:44:35.497Z,-67
2018-03-31T09:47:01.319Z,-66
2018-03-31T09:49:27.156Z,-66
2018-03-31T09:51:52.969Z,-66
2018-03-31T09:54:18.781Z,-66
2018-03-31T09:56:44.608Z,-66
2018-03-31T09:59:16.076Z,-67
2018-03-31T10:04:14.035Z,-66
2018-03-31T10:06:39.853Z,-67
2018-03-31T10:09:05.663Z,-67
2018-03-31T10:11:32.318Z,-67
2018-03-31T10:13:58.248Z,-66
2018-03-31T10:16:24.053Z,-66
2018-03-31T10:18:49.884Z,-66
2018-03-31T10:21:15.691Z,-66
2018-03-31T10:23:41.608Z,-68
2018-03-31T10:26:07.431Z,-67
2018-03-31T10:28:33.265Z,-66
2018-03-31T10:30:59.081Z,-67
2018-03-31T10:33:24.909Z,-66
2018-03-31T10:35:50.718Z,-66
2018-03-31T10:38:16.531Z,-66
2018-03-31T10:40:42.406Z,-66
2018-03-31T10:43:08.378Z,-67
2018-03-31T10:45:34.191Z,-66
2018-03-31T10:48:00.125Z,-67
2018-03-31T10:50:26.016Z,-67
2018-03-31T10:52:52.578Z,-67
2018-03-31T10:55:18.406Z,-67
2018-03-31T10:57:44.218Z,-66
2018-03-31T11:00:10.041Z,-67
2018-03-31T11:02:35.851Z,-66
2018-03-31T11:05:01.679Z,-67
2018-03-31T11:07:27.493Z,-67
2018-03-31T11:09:58.132Z,-66
2018-03-31T11:12:23.955Z,-67
2018-03-31T11:14:49.771Z,-67
2018-03-31T11:17:15.605Z,-66
2018-03-31T11:19:41.409Z,-67
2018-03-31T11:22:07.227Z,-66
2018-03-31T11:24:33.045Z,-67
2018-03-31T11:26:58.859Z,-67
2018-03-31T11:29:24.673Z,-67
2018-03-31T11:31:50.506Z,-67
2018-03-31T11:34:16.309Z,-67
2018-03-31T11:36:42.153Z,-66
2018-03-31T11:39:08.096Z,-66
2018-03-31T11:41:33.979Z,-67
2018-03-31T11:43:59.798Z,-66
2018-03-31T11:46:25.624Z,-66
2018-03-31T11:48:51.557Z,-66
2018-03-31T11:51:17.355Z,-66
2018-03-31T11:53:43.178Z,-66
2018-03-31T11:56:08.998Z,-66
2018-03-31T11:58:34.811Z,-67
2018-03-31T12:01:00.651Z,-66
2018-03-31T12:03:26.458Z,-66
2018-03-31T12:05:52.308Z,-66
2018-03-31T12:08:18.342Z,-67
2018-03-31T12:10:44.166Z,-66
2018-03-31T12:13:10.043Z,-67
2018-03-31T12:15:35.867Z,-67
2018-03-31T12:18:01.739Z,-66
2018-03-31T12:20:27.702Z,-66
2018-03-31T12:22:53.576Z,-67
2018-03-31T12:25:19.446Z,-67
2018-03-31T12:27:45.270Z,-69
2018-03-31T12:30:11.088Z,-67
2018-03-31T12:32:36.910Z,-67
2018-03-31T12:37:34.918Z,-67
2018-03-31T12:40:00.711Z,-67
2018-03-31T12:42:26.535Z,-67
2018-03-31T12:44:52.337Z,-64
2018-03-31T12:47:19.024Z,-68
2018-03-31T12:52:17.218Z,-68
2018-03-31T12:54:43.002Z,-67
2018-03-31T12:57:08.817Z,-67
2018-03-31T12:59:34.646Z,-68
2018-03-31T13:02:00.465Z,-67
2018-03-31T13:04:26.295Z,-66
2018-03-31T13:06:52.056Z,-69
2018-03-31T13:14:24.257Z,-67
2018-03-31T13:16:50.197Z,-68
2018-03-31T13:19:16.764Z,-67
2018-03-31T13:21:42.586Z,-67
2018-03-31T13:24:08.407Z,-68
2018-03-31T13:26:34.220Z,-67
2018-03-31T13:31:32.028Z,-68
2018-03-31T13:36:29.598Z,-68
2018-03-31T13:38:55.407Z,-68
2018-03-31T13:41:21.216Z,-68
2018-03-31T13:43:47.043Z,-67
2018-03-31T13:46:12.859Z,-67
2018-03-31T13:48:38.688Z,-67
2018-03-31T13:51:04.516Z,-68
2018-03-31T13:53:31.130Z,-68
2018-03-31T13:55:56.986Z,-67
2018-03-31T13:58:26.371Z,-67
2018-03-31T14:00:52.178Z,-68
2018-03-31T14:03:17.996Z,-67
2018-03-31T14:05:43.830Z,-68
2018-03-31T14:08:09.666Z,-67
2018-03-31T14:10:35.462Z,-67
2018-03-31T14:13:01.288Z,-67
2018-03-31T14:15:27.112Z,-67
2018-03-31T14:17:52.919Z,-68
2018-03-31T14:20:18.742Z,-67
2018-03-31T14:22:44.562Z,-68
2018-03-31T14:25:10.368Z,-67
2018-03-31T14:27:36.261Z,-67
2018-03-31T14:30:02.831Z,-67
2018-03-31T14:32:28.661Z,-67
2018-03-31T14:34:54.472Z,-67
2018-03-31T14:37:20.285Z,-67
2018-03-31T14:39:46.107Z,-67
2018-03-31T14:42:11.956Z,-67
2018-03-31T14:44:37.757Z,-67
2018-03-31T14:47:03.624Z,-68
2018-03-31T14:49:29.383Z,-67
2018-03-31T14:51:55.215Z,-67
2018-03-31T14:54:21.027Z,-67
2018-03-31T14:56:46.846Z,-67
2018-03-31T14:59:12.665Z,-67
2018-03-31T15:01:38.501Z,-67
2018-03-31T15:04:04.295Z,-67
2018-03-31T15:06:30.125Z,-67
2018-03-31T15:08:55.935Z,-67
2018-03-31T15:11:21.744Z,-67
2018-03-31T15:18:52.957Z,-68
2018-03-31T15:21:18.742Z,-67
2018-03-31T15:23:45.279Z,-65
2018-03-31T15:26:11.816Z,-67
2018-03-31T15:28:38.394Z,-68
2018-03-31T15:31:04.171Z,-66
2018-03-31T15:36:03.093Z,-67
2018-03-31T15:38:29.005Z,-67
2018-03-31T15:40:55.549Z,-66
2018-03-31T15:43:21.639Z,-66
2018-03-31T15:45:47.481Z,-66
2018-03-31T15:48:14.023Z,-66
2018-03-31T15:50:41.339Z,-66
2018-03-31T15:53:07.195Z,-68
2018-03-31T15:55:33.919Z,-64
2018-03-31T15:57:59.970Z,-66
2018-03-31T16:00:25.790Z,-66
2018-03-31T16:02:51.603Z,-66
2018-03-31T16:05:18.137Z,-66
2018-03-31T16:07:44.625Z,-65
2018-03-31T16:10:10.502Z,-68
2018-03-31T16:12:36.323Z,-66
2018-03-31T16:15:02.128Z,-67
2018-03-31T16:17:27.954Z,-68
2018-03-31T16:19:57.782Z,-66
2018-03-31T16:22:23.590Z,-66
2018-03-31T16:24:50.118Z,-66
2018-03-31T16:27:16.655Z,-67
2018-03-31T16:29:43.201Z,-67
2018-03-31T16:32:09.017Z,-67
2018-03-31T16:34:35.552Z,-67
2018-03-31T16:37:02.079Z,-67
2018-03-31T16:39:28.624Z,-67
2018-03-31T16:41:55.154Z,-67
2018-03-31T16:44:21.711Z,-67
2018-03-31T16:46:47.525Z,-67
2018-03-31T16:49:13.333Z,-67
2018-03-31T16:51:39.868Z,-67
2018-03-31T16:54:06.418Z,-67
2018-03-31T16:59:03.779Z,-67
2018-03-31T17:01:30.315Z,-67
2018-03-31T17:03:57.093Z,-67
2018-03-31T17:06:23.765Z,-67
2018-03-31T17:08:49.732Z,-67
2018-03-31T17:11:15.535Z,-67
2018-03-31T17:13:42.162Z,-68
2018-03-31T17:16:08.001Z,-67
2018-03-31T17:18:34.650Z,-66
2018-03-31T17:21:00.488Z,-68
2018-03-31T17:23:26.271Z,-69
2018-03-31T17:25:52.940Z,-69
2018-03-31T17:28:18.758Z,-67
2018-03-31T17:30:44.567Z,-68
2018-03-31T17:33:10.391Z,-67
2018-03-31T17:35:36.206Z,-64
2018-03-31T17:38:02.038Z,-66
2018-03-31T17:40:27.831Z,-67
2018-03-31T17:42:54.508Z,-67
2018-03-31T17:45:20.298Z,-65
2018-03-31T17:47:46.115Z,-65
2018-03-31T17:50:11.954Z,-66
2018-03-31T17:52:37.749Z,-67
2018-03-31T17:55:03.679Z,-67
2018-03-31T17:57:29.502Z,-67
2018-03-31T17:59:55.437Z,-67
2018-03-31T18:02:21.843Z,-67
2018-03-31T18:07:19.010Z,-67
2018-03-31T18:22:26.222Z,-55
2018-03-31T18:24:52.767Z,-56
2018-03-31T18:27:18.669Z,-43
2018-03-31T18:29:44.613Z,-45
2018-03-31T18:32:10.440Z,-45
2018-03-31T18:34:36.245Z,-45
2018-03-31T18:37:02.259Z,-45
2018-03-31T18:39:28.060Z,-45
2018-03-31T18:41:53.880Z,-45
2018-03-31T18:44:20.516Z,-46
2018-03-31T18:46:46.332Z,-47
2018-03-31T18:49:12.152Z,-46
2018-03-31T18:51:37.967Z,-46
2018-03-31T18:54:04.607Z,-45
2018-03-31T18:56:30.529Z,-45
2018-03-31T18:58:56.348Z,-45
2018-03-31T19:01:22.164Z,-44
2018-03-31T19:03:47.980Z,-45
2018-03-31T19:06:13.804Z,-45
2018-03-31T19:08:40.442Z,-45
2018-03-31T19:11:07.688Z,-45
2018-03-31T19:13:33.633Z,-45
2018-03-31T19:15:59.429Z,-45
2018-03-31T19:18:25.244Z,-44
2018-03-31T19:20:52.496Z,-44
2018-03-31T19:23:18.329Z,-44
2018-03-31T19:25:44.136Z,-44
2018-03-31T19:28:09.952Z,-56
2018-03-31T19:30:35.764Z,-55
2018-03-31T19:33:01.595Z,-55
2018-03-31T19:35:27.412Z,-56
2018-03-31T19:37:53.225Z,-55
2018-03-31T19:40:19.044Z,-56
2018-03-31T19:42:46.296Z,-56
2018-03-31T19:45:12.160Z,-55
2018-03-31T19:47:37.932Z,-56
2018-03-31T19:50:05.184Z,-55
2018-03-31T19:52:31.824Z,-56
2018-03-31T19:54:57.651Z,-55
2018-03-31T19:57:24.177Z,-44
2018-03-31T19:59:50.008Z,-44
2018-03-31T20:02:15.832Z,-44
2018-03-31T20:04:41.639Z,-44
2018-03-31T20:07:07.447Z,-47
2018-03-31T20:09:33.295Z,-44
2018-03-31T20:11:59.912Z,-44
2018-03-31T20:14:25.728Z,-55
2018-03-31T20:16:52.361Z,-55
2018-03-31T20:19:18.176Z,-56
2018-03-31T20:21:44.000Z,-55
2018-03-31T20:24:09.815Z,-55
2018-03-31T20:26:35.636Z,-55
2018-03-31T20:29:01.551Z,-44
2018-03-31T20:31:27.371Z,-44
2018-03-31T20:33:54.640Z,-44
2018-03-31T20:36:20.439Z,-44
2018-03-31T20:38:46.261Z,-45
2018-03-31T20:41:12.897Z,-44
2018-03-31T20:43:38.835Z,-55
2018-03-31T20:46:04.660Z,-55
2018-03-31T20:48:30.459Z,-55
2018-03-31T20:50:57.711Z,-55
2018-03-31T20:53:23.523Z,-55
2018-03-31T20:55:49.344Z,-55
2018-03-31T20:58:15.264Z,-44
2018-03-31T21:00:41.088Z,-45
2018-03-31T21:03:06.910Z,-45
2018-03-31T21:05:32.732Z,-45
2018-03-31T21:07:58.539Z,-44
2018-03-31T21:10:24.356Z,-44
2018-03-31T21:12:50.276Z,-55
2018-03-31T21:15:16.696Z,-55
2018-03-31T21:17:42.528Z,-55
2018-03-31T21:20:08.348Z,-55
2018-03-31T21:22:34.184Z,-55
2018-03-31T21:24:59.983Z,-55
2018-03-31T21:27:25.800Z,-55
2018-03-31T21:29:51.716Z,-44
2018-03-31T21:32:17.545Z,-45
2018-03-31T21:34:43.355Z,-44
2018-03-31T21:37:09.176Z,-45
2018-03-31T21:39:35.003Z,-44
2018-03-31T21:42:00.811Z,-44
2018-03-31T21:44:26.737Z,-55
2018-03-31T21:46:52.552Z,-55
2018-03-31T21:49:18.371Z,-55
2018-03-31T21:51:44.191Z,-55
2018-03-31T21:54:10.829Z,-55
2018-03-31T21:56:36.704Z,-55
2018-03-31T21:59:02.460Z,-44
2018-03-31T22:01:29.732Z,-44
2018-03-31T22:03:55.537Z,-44
2018-03-31T22:06:21.356Z,-44
2018-03-31T22:08:48.600Z,-44
2018-03-31T22:11:14.416Z,-44
2018-03-31T22:13:40.340Z,-44
2018-03-31T22:16:06.164Z,-44
2018-03-31T22:18:31.980Z,-44
2018-03-31T22:20:57.801Z,-44
2018-03-31T22:23:23.615Z,-44
2018-03-31T22:25:49.431Z,-44
2018-03-31T22:28:15.247Z,-47
2018-03-31T22:30:41.168Z,-44
2018-03-31T22:33:08.425Z,-44
2018-03-31T22:35:34.242Z,-45
2018-03-31T22:38:00.875Z,-44
2018-03-31T22:40:28.132Z,-44
2018-03-31T22:42:53.948Z,-44
2018-03-31T22:45:21.212Z,-44
2018-03-31T22:47:47.029Z,-44
2018-03-31T22:50:12.840Z,-44
2018-03-31T22:52:38.660Z,-45
2018-03-31T22:55:04.471Z,-44
2018-03-31T22:57:30.293Z,-44
2018-03-31T22:59:56.122Z,-45
2018-03-31T23:02:21.928Z,-44
2018-03-31T23:04:47.745Z,-44
2018-03-31T23:07:13.563Z,-44
2018-03-31T23:09:40.819Z,-44
2018-03-31T23:12:06.632Z,-46
2018-03-31T23:14:32.452Z,-44
2018-03-31T23:16:59.704Z,-44
2018-03-31T23:19:25.524Z,-44
2018-03-31T23:21:52.161Z,-43
2018-03-31T23:24:19.411Z,-44
2018-03-31T23:26:46.680Z,-44
2018-03-31T23:29:13.200Z,-55
2018-03-31T23:31:39.016Z,-55
2018-03-31T23:34:06.267Z,-55
2018-03-31T23:36:33.525Z,-55
2018-03-31T23:39:00.772Z,-55
2018-03-31T23:41:26.592Z,-56
2018-03-31T23:43:53.235Z,-56
2018-03-31T23:46:19.049Z,-44
2018-03-31T23:48:44.863Z,-44
2018-03-31T23:51:12.116Z,-45
2018-03-31T23:53:39.369Z,-44
2018-03-31T23:56:05.193Z,-44
2018-03-31T23:58:31.824Z,-44
